Time;durP1;ratioP1;P1;durP2;ratioP2;P2;SDS_P1;SDS_P2;PMS_P1;PMS_P2;Temp;Humidity;BMP_temperature;BMP_pressure;BME280_temperature;BME280_humidity;BME280_pressure;Samples;Min_cycle;Max_cycle;Signal;HPM_P1;HPM_P2
2024/03/04 00:00:48;;;;;;;13.93;12.50;;;;;;;8.18;76.74;99173.59;2503624;28;20069;-78
2024/03/04 00:02:01;;;;;;;17.95;13.65;;;;;;;8.17;76.93;99170.13;2504274;28;20063;-78
2024/03/04 00:03:16;;;;;;;17.05;15.13;;;;;;;8.16;76.90;99173.63;2504029;28;20065;-78
2024/03/04 00:04:30;;;;;;;15.23;13.63;;;;;;;8.17;76.75;99179.69;2503602;28;20050;-78
2024/03/04 00:05:44;;;;;;;14.73;12.82;;;;;;;8.15;77.08;99179.69;2503424;28;20061;-78
2024/03/04 00:06:59;;;;;;;19.42;14.35;;;;;;;8.16;76.95;99183.16;2503739;28;20047;-78
2024/03/04 00:08:14;;;;;;;15.45;13.70;;;;;;;8.16;76.93;99189.22;2504151;28;20047;-78
2024/03/04 00:09:27;;;;;;;16.02;14.43;;;;;;;8.17;76.91;99180.53;2503555;28;20138;-78
2024/03/04 00:10:43;;;;;;;19.30;14.20;;;;;;;8.17;76.86;99182.28;2503937;28;20043;-78
2024/03/04 00:11:56;;;;;;;15.75;14.07;;;;;;;8.16;76.81;99181.44;2503869;28;20092;-78
2024/03/04 00:13:11;;;;;;;16.77;13.88;;;;;;;8.18;76.76;99178.78;2503197;28;20051;-78
2024/03/04 00:14:25;;;;;;;15.85;14.20;;;;;;;8.16;76.62;99181.44;2503495;28;20443;-78
2024/03/04 00:15:39;;;;;;;16.98;14.80;;;;;;;8.16;76.73;99178.84;2503554;28;20046;-78
2024/03/04 00:16:53;;;;;;;19.63;14.13;;;;;;;8.15;76.81;99181.44;2503413;28;20051;-78
2024/03/04 00:18:07;;;;;;;16.55;14.85;;;;;;;8.14;76.69;99184.94;2504019;28;20431;-78
2024/03/04 00:19:21;;;;;;;16.27;14.52;;;;;;;8.13;76.31;99186.69;2503258;28;20065;-78
2024/03/04 00:20:35;;;;;;;16.60;13.85;;;;;;;8.13;76.58;99185.81;2504236;28;20126;-78
2024/03/04 00:21:48;;;;;;;19.05;17.00;;;;;;;8.12;76.56;99184.97;2503836;28;20054;-78
2024/03/04 00:23:05;;;;;;;17.77;14.85;;;;;;;8.12;76.73;99195.38;2503878;28;20346;-78
2024/03/04 00:24:18;;;;;;;15.93;14.15;;;;;;;8.12;76.81;99189.31;2504281;28;20050;-79
2024/03/04 00:25:32;;;;;;;19.55;15.93;;;;;;;8.13;76.74;99199.69;2504186;28;20055;-78
2024/03/04 00:26:47;;;;;;;17.83;15.02;;;;;;;8.13;76.79;99196.22;2504239;28;20063;-77
2024/03/04 00:28:01;;;;;;;17.20;15.25;;;;;;;8.12;76.64;99205.75;2504155;28;20066;-78
2024/03/04 00:29:15;;;;;;;16.88;15.18;;;;;;;8.14;76.92;99201.41;2503389;28;20054;-78
2024/03/04 00:30:30;;;;;;;20.00;15.35;;;;;;;8.14;76.58;99206.59;2503942;28;20109;-78
2024/03/04 00:31:43;;;;;;;16.60;14.95;;;;;;;8.16;76.88;99210.03;2503686;28;20047;-78
2024/03/04 00:32:58;;;;;;;17.90;14.75;;;;;;;8.17;76.71;99208.28;2503229;28;20117;-78
2024/03/04 00:34:12;;;;;;;15.60;13.98;;;;;;;8.19;76.60;99203.91;2504242;28;20233;-78
2024/03/04 00:35:27;;;;;;;18.23;16.17;;;;;;;8.20;76.52;99209.03;2512941;28;20039;-77
2024/03/04 00:36:40;;;;;;;19.88;16.40;;;;;;;8.22;76.50;99212.47;2507825;28;20617;-77
2024/03/04 00:37:54;;;;;;;20.48;15.52;;;;;;;8.24;76.64;99213.31;2504031;28;20070;-77
2024/03/04 00:39:09;;;;;;;18.50;14.95;;;;;;;8.24;76.53;99210.69;2504416;28;20051;-77
2024/03/04 00:40:24;;;;;;;18.02;14.80;;;;;;;8.27;76.51;99214.97;2503647;28;20074;-77
2024/03/04 00:41:37;;;;;;;19.42;16.23;;;;;;;8.27;76.41;99210.63;2504781;28;20050;-78
2024/03/04 00:42:52;;;;;;;17.45;15.52;;;;;;;8.29;76.34;99216.66;2504199;28;20101;-78
2024/03/04 00:44:05;;;;;;;16.48;14.55;;;;;;;8.30;76.25;99220.09;2504391;28;20058;-78
2024/03/04 00:45:20;;;;;;;17.70;14.70;;;;;;;8.32;76.34;99222.69;2503603;28;20042;-78
2024/03/04 00:46:39;;;;;;;16.75;14.95;;;;;;;8.34;76.40;99229.56;2503949;28;20054;-78
2024/03/04 00:47:53;;;;;;;17.55;15.75;;;;;;;8.35;75.98;99233.00;2504300;28;20055;-78
2024/03/04 00:49:06;;;;;;;19.30;15.50;;;;;;;8.36;76.19;99234.69;2503629;28;20042;-78
2024/03/04 00:50:21;;;;;;;18.95;15.43;;;;;;;8.38;76.13;99233.78;2503504;28;20050;-78
2024/03/04 00:51:36;;;;;;;18.27;16.30;;;;;;;8.40;76.04;99238.97;2503618;28;20094;-79
2024/03/04 00:52:50;;;;;;;18.02;16.10;;;;;;;8.39;76.21;99235.53;2503379;28;20463;-79
2024/03/04 00:54:05;;;;;;;17.25;15.45;;;;;;;8.41;75.90;99249.34;2503608;28;20055;-77
2024/03/04 00:55:20;;;;;;;18.30;14.93;;;;;;;8.43;76.04;99246.72;2502518;28;20096;-77
2024/03/04 00:56:34;;;;;;;20.60;16.30;;;;;;;8.42;75.95;99253.66;2503008;28;20055;-78
2024/03/04 00:57:48;;;;;;;20.33;18.05;;;;;;;8.42;76.03;99255.41;2503080;28;20711;-78
2024/03/04 00:59:02;;;;;;;18.52;15.18;;;;;;;8.43;75.95;99254.50;2503230;28;20444;-78
2024/03/04 01:00:17;;;;;;;18.48;14.95;;;;;;;8.45;76.00;99252.75;2502965;28;20066;-77
2024/03/04 01:01:32;;;;;;;16.85;15.05;;;;;;;8.47;75.74;99253.56;2503020;28;20721;-78
2024/03/04 01:02:47;;;;;;;21.35;16.88;;;;;;;8.46;75.90;99252.69;2503113;28;20145;-77
2024/03/04 01:04:00;;;;;;;17.92;15.32;;;;;;;8.49;75.91;99262.16;2503021;28;20055;-78
2024/03/04 01:05:15;;;;;;;18.70;15.82;;;;;;;8.48;75.69;99255.25;2502595;28;20541;-78
2024/03/04 01:06:29;;;;;;;20.50;16.42;;;;;;;8.48;75.87;99255.25;2503085;28;20472;-78
2024/03/04 01:07:44;;;;;;;20.73;15.95;;;;;;;8.47;75.68;99253.56;2503237;28;20059;-77
2024/03/04 01:08:58;;;;;;;19.70;17.08;;;;;;;8.46;75.50;99257.88;2502806;28;20050;-77
2024/03/04 01:10:12;;;;;;;20.52;15.82;;;;;;;8.45;75.78;99258.78;2503455;28;20129;-78
2024/03/04 01:11:27;;;;;;;19.00;16.15;;;;;;;8.45;75.70;99266.59;2503091;28;20062;-78
2024/03/04 01:12:41;;;;;;;21.25;17.38;;;;;;;8.44;75.52;99264.00;2502228;28;20061;-78
2024/03/04 01:13:55;;;;;;;21.98;17.27;;;;;;;8.43;75.49;99263.16;2503262;28;20415;-78
2024/03/04 01:15:09;;;;;;;19.02;16.38;;;;;;;8.43;75.56;99270.09;2502831;28;20051;-78
2024/03/04 01:16:24;;;;;;;20.05;16.88;;;;;;;8.42;75.47;99261.47;2502799;28;20057;-77
2024/03/04 01:17:38;;;;;;;18.73;15.68;;;;;;;8.42;75.54;99266.66;2496392;28;20582;-77
2024/03/04 01:18:53;;;;;;;22.00;17.52;;;;;;;8.43;75.46;99275.31;2502860;28;20051;-78
2024/03/04 01:20:10;;;;;;;26.30;17.90;;;;;;;8.43;75.69;99267.50;2503000;28;20137;-77
2024/03/04 01:21:25;;;;;;;21.83;17.23;;;;;;;8.42;75.63;99271.84;2503176;28;20050;-78
2024/03/04 01:22:39;;;;;;;18.00;16.13;;;;;;;8.43;75.72;99283.09;2503777;28;20122;-78
2024/03/04 01:23:54;;;;;;;20.55;15.98;;;;;;;8.42;75.55;99284.84;2503816;28;20129;-77
2024/03/04 01:25:09;;;;;;;19.08;16.23;;;;;;;8.42;75.82;99282.25;2505166;28;20431;-77
2024/03/04 01:26:23;;;;;;;20.48;16.45;;;;;;;8.43;75.57;99280.50;2505068;28;20062;-78
2024/03/04 01:27:38;;;;;;;19.63;15.02;;;;;;;8.43;75.53;99283.97;2495624;28;20583;-78
2024/03/04 01:28:53;;;;;;;20.60;16.25;;;;;;;8.43;75.60;99290.91;2503071;28;20039;-77
2024/03/04 01:30:09;;;;;;;20.77;16.40;;;;;;;8.43;75.67;99288.31;2503709;28;20516;-78
2024/03/04 01:31:23;;;;;;;22.45;18.48;;;;;;;8.43;75.63;99283.09;2502764;28;20149;-78
2024/03/04 01:32:37;;;;;;;21.88;16.02;;;;;;;8.43;75.78;99283.09;2494986;28;20039;-78
2024/03/04 01:33:51;;;;;;;18.95;16.15;;;;;;;8.43;75.53;99290.91;2503789;28;20054;-77
2024/03/04 01:35:07;;;;;;;21.70;17.58;;;;;;;8.43;75.40;99290.91;2501259;28;20058;-78
2024/03/04 01:36:21;;;;;;;25.38;19.27;;;;;;;8.42;75.60;99286.59;2503390;28;20519;-78
2024/03/04 01:37:35;;;;;;;22.92;17.98;;;;;;;8.42;75.53;99297.84;2503607;28;20054;-78
2024/03/04 01:38:49;;;;;;;23.25;19.40;;;;;;;8.43;75.63;99285.72;2503489;28;20069;-78
2024/03/04 01:40:04;;;;;;;20.75;18.00;;;;;;;8.45;75.53;99289.13;2503597;28;20054;-78
2024/03/04 01:41:18;;;;;;;21.83;18.25;;;;;;;8.43;75.57;99294.34;2502914;28;20039;-78
2024/03/04 01:42:32;;;;;;;22.20;17.73;;;;;;;8.43;75.43;99293.50;2504102;28;20062;-78
2024/03/04 01:43:47;;;;;;;23.90;18.73;;;;;;;8.44;75.46;99297.81;2505009;28;20065;-78
2024/03/04 01:45:01;;;;;;;19.88;16.80;;;;;;;8.43;75.43;99309.97;2515053;28;20038;-79
2024/03/04 01:46:15;;;;;;;22.25;16.70;;;;;;;8.43;75.38;99303.91;2509641;28;20174;-77
2024/03/04 01:47:29;;;;;;;22.02;18.67;;;;;;;8.43;75.42;99303.91;2504313;28;20051;-77
2024/03/04 01:48:43;;;;;;;29.10;18.73;;;;;;;8.43;75.64;99314.31;2503793;28;20050;-77
2024/03/04 01:49:57;;;;;;;28.83;20.15;;;;;;;8.42;75.57;99305.66;2503473;28;20130;-77
2024/03/04 01:51:12;;;;;;;25.50;19.67;;;;;;;8.45;75.53;99320.34;2504243;28;20069;-77
2024/03/04 01:52:26;;;;;;;22.00;17.95;;;;;;;8.45;75.65;99318.59;2503612;28;20058;-77
2024/03/04 01:53:41;;;;;;;22.58;17.23;;;;;;;8.44;75.54;99310.81;2504141;28;20398;-77
2024/03/04 01:54:55;;;;;;;23.02;19.17;;;;;;;8.44;75.51;99310.81;2504108;28;20055;-77
2024/03/04 01:56:10;;;;;;;21.80;18.70;;;;;;;8.45;75.45;99322.94;2504198;28;20082;-77
2024/03/04 01:57:24;;;;;;;23.88;18.77;;;;;;;8.45;75.49;99318.59;2503662;28;20073;-77
2024/03/04 01:58:44;;;;;;;26.10;19.92;;;;;;;8.44;75.50;99324.69;2504017;28;20047;-77
2024/03/04 01:59:58;;;;;;;23.80;18.83;;;;;;;8.41;75.69;99324.72;2503793;28;20460;-77
2024/03/04 02:01:13;;;;;;;23.73;18.17;;;;;;;8.42;75.45;99320.41;2503685;28;20145;-77
2024/03/04 02:02:29;;;;;;;26.50;20.60;;;;;;;8.40;75.70;99324.78;2503815;28;20061;-77
2024/03/04 02:03:43;;;;;;;23.33;19.23;;;;;;;8.40;75.57;99332.56;2503959;28;20101;-77
2024/03/04 02:04:57;;;;;;;24.45;21.42;;;;;;;8.40;75.46;99330.81;2503489;28;20051;-77
2024/03/04 02:06:12;;;;;;;24.38;19.15;;;;;;;8.39;75.70;99336.94;2503758;28;20049;-77
2024/03/04 02:07:25;;;;;;;23.08;19.23;;;;;;;8.37;75.61;99327.41;2503895;28;20055;-77
2024/03/04 02:08:40;;;;;;;25.52;21.30;;;;;;;8.38;75.33;99336.91;2503129;28;20051;-77
2024/03/04 02:09:53;;;;;;;26.63;20.77;;;;;;;8.37;75.54;99336.06;2503907;28;20374;-77
2024/03/04 02:11:08;;;;;;;27.55;19.30;;;;;;;8.37;75.49;99346.47;2504034;28;20047;-77
2024/03/04 02:12:21;;;;;;;24.23;19.13;;;;;;;8.35;75.49;99339.59;2503304;28;20420;-77
2024/03/04 02:13:36;;;;;;;26.08;20.98;;;;;;;8.35;75.32;99345.63;2503776;28;20053;-77
2024/03/04 02:14:50;;;;;;;25.92;20.08;;;;;;;8.34;75.43;99337.84;2503743;28;20039;-77
2024/03/04 02:16:06;;;;;;;29.20;21.67;;;;;;;8.34;75.49;99338.72;2503865;28;20081;-77
2024/03/04 02:17:19;;;;;;;27.00;20.40;;;;;;;8.32;75.52;99337.91;2503518;28;20050;-77
2024/03/04 02:18:34;;;;;;;29.20;21.80;;;;;;;8.34;75.52;99345.66;2503680;28;20464;-77
2024/03/04 02:19:47;;;;;;;25.27;20.35;;;;;;;8.33;75.50;99346.53;2504098;28;20054;-77
2024/03/04 02:21:03;;;;;;;30.88;23.88;;;;;;;8.33;75.42;99338.75;2503306;28;20047;-78
2024/03/04 02:22:22;;;;;;;25.77;21.02;;;;;;;8.30;75.37;99350.91;2504173;28;20050;-77
2024/03/04 02:23:37;;;;;;;26.88;21.05;;;;;;;8.32;75.33;99347.44;2503769;28;20050;-77
2024/03/04 02:24:50;;;;;;;25.50;21.90;;;;;;;8.31;75.54;99346.56;2503487;28;20054;-78
2024/03/04 02:26:05;;;;;;;29.00;21.73;;;;;;;8.32;75.33;99352.66;2504919;28;20137;-77
2024/03/04 02:27:20;;;;;;;28.65;23.27;;;;;;;8.32;75.46;99350.03;2504997;28;20053;-77
2024/03/04 02:28:34;;;;;;;33.13;26.95;;;;;;;8.31;75.53;99354.38;2504459;28;20047;-77
2024/03/04 02:29:48;;;;;;;30.25;24.35;;;;;;;8.32;75.56;99353.50;2505168;28;20067;-78
2024/03/04 02:31:03;;;;;;;28.27;23.95;;;;;;;8.32;75.49;99358.69;2504940;28;20049;-78
2024/03/04 02:32:17;;;;;;;29.15;22.38;;;;;;;8.32;75.17;99358.69;2504636;28;20047;-78
2024/03/04 02:33:31;;;;;;;28.23;20.38;;;;;;;8.32;75.16;99363.03;2504868;28;20427;-78
2024/03/04 02:34:45;;;;;;;28.35;22.17;;;;;;;8.31;75.23;99356.97;2506023;28;20071;-79
2024/03/04 02:36:00;;;;;;;29.40;23.27;;;;;;;8.29;75.21;99362.22;2506872;28;20045;-79
2024/03/04 02:37:14;;;;;;;29.88;23.40;;;;;;;8.28;75.38;99370.03;2505084;28;20042;-78
2024/03/04 02:38:31;;;;;;;30.30;26.52;;;;;;;8.27;75.34;99365.72;2505014;28;20126;-78
2024/03/04 02:39:45;;;;;;;29.05;24.02;;;;;;;8.26;75.29;99379.59;2505061;28;20050;-78
2024/03/04 02:41:03;;;;;;;29.05;22.75;;;;;;;8.25;75.13;99372.69;2504508;28;20039;-78
2024/03/04 02:42:17;;;;;;;29.58;23.08;;;;;;;8.24;75.26;99377.03;2505388;28;20385;-78
2024/03/04 02:43:31;;;;;;;32.20;24.95;;;;;;;8.26;75.49;99380.47;2504260;28;20133;-78
2024/03/04 02:44:45;;;;;;;33.42;24.52;;;;;;;8.27;75.40;99381.31;2504419;28;20047;-78
2024/03/04 02:45:59;;;;;;;29.92;23.38;;;;;;;8.27;75.19;99382.16;2505202;28;20106;-78
2024/03/04 02:47:14;;;;;;;33.13;24.73;;;;;;;8.26;75.24;99375.28;2505085;28;20050;-78
2024/03/04 02:48:29;;;;;;;31.45;24.40;;;;;;;8.25;75.45;99380.50;2505222;28;20483;-78
2024/03/04 02:49:43;;;;;;;28.48;23.38;;;;;;;8.26;75.31;99385.66;2497434;28;20051;-78
2024/03/04 02:50:57;;;;;;;33.78;25.75;;;;;;;8.25;75.24;99373.53;2505228;28;20050;-78
2024/03/04 02:52:11;;;;;;;36.22;26.13;;;;;;;8.24;75.30;99386.59;2505308;28;20054;-78
2024/03/04 02:53:26;;;;;;;29.50;23.35;;;;;;;8.24;75.37;99381.38;2506911;28;20477;-78
2024/03/04 02:54:40;;;;;;;30.30;24.95;;;;;;;8.23;75.28;99385.69;2515533;28;20030;-78
2024/03/04 02:55:55;;;;;;;34.33;23.35;;;;;;;8.23;75.36;99390.06;2504913;28;20058;-78
2024/03/04 02:57:10;;;;;;;30.75;21.95;;;;;;;8.24;75.16;99390.03;2506385;28;20045;-78
2024/03/04 02:58:27;;;;;;;37.78;27.02;;;;;;;8.23;75.43;99390.91;2506127;28;20047;-79
2024/03/04 02:59:42;;;;;;;30.42;25.33;;;;;;;8.21;75.10;99392.69;2506309;28;20055;-79
2024/03/04 03:00:57;;;;;;;29.85;22.65;;;;;;;8.20;75.43;99392.72;2505125;28;20066;-78
2024/03/04 03:02:10;;;;;;;35.03;24.40;;;;;;;8.19;75.35;99404.00;2514803;28;20049;-78
2024/03/04 03:03:25;;;;;;;33.30;24.17;;;;;;;8.19;75.37;99407.47;2509021;28;20107;-78
2024/03/04 03:04:38;;;;;;;35.80;25.52;;;;;;;8.17;75.28;99403.19;2504116;28;20135;-78
2024/03/04 03:05:53;;;;;;;32.30;22.92;;;;;;;8.17;75.33;99411.81;2503926;28;20063;-78
2024/03/04 03:07:06;;;;;;;34.40;23.02;;;;;;;8.17;75.16;99413.56;2504601;28;20423;-78
2024/03/04 03:08:20;;;;;;;33.17;24.75;;;;;;;8.15;75.43;99403.19;2504240;28;20074;-78
2024/03/04 03:09:34;;;;;;;35.75;23.60;;;;;;;8.15;75.54;99417.94;2504377;28;20127;-78
2024/03/04 03:10:50;;;;;;;32.30;24.75;;;;;;;8.14;75.43;99427.47;2504382;28;20058;-78
2024/03/04 03:12:04;;;;;;;39.05;28.50;;;;;;;8.13;75.36;99419.69;2504244;28;20050;-78
2024/03/04 03:13:18;;;;;;;35.20;26.08;;;;;;;8.12;75.37;99415.41;2504006;28;20508;-77
2024/03/04 03:14:34;;;;;;;32.22;25.00;;;;;;;8.12;75.30;99418.84;2504085;28;20085;-77
2024/03/04 03:15:49;;;;;;;32.88;24.88;;;;;;;8.12;75.53;99418.84;2504025;28;20464;-77
2024/03/04 03:17:02;;;;;;;41.05;27.80;;;;;;;8.09;75.52;99427.56;2503588;28;20042;-77
2024/03/04 03:18:17;;;;;;;36.38;25.63;;;;;;;8.11;75.23;99421.50;2503465;28;20130;-77
2024/03/04 03:19:30;;;;;;;39.08;28.38;;;;;;;8.10;75.44;99431.00;2503708;28;20515;-78
2024/03/04 03:20:45;;;;;;;35.47;25.45;;;;;;;8.12;75.62;99436.19;2503502;28;20066;-78
2024/03/04 03:21:58;;;;;;;34.83;24.55;;;;;;;8.11;75.23;99429.28;2504397;28;20047;-77
2024/03/04 03:23:13;;;;;;;38.70;27.42;;;;;;;8.11;75.27;99434.47;2504255;28;20132;-78
2024/03/04 03:24:26;;;;;;;34.08;24.67;;;;;;;8.11;75.35;99432.75;2503577;28;20047;-78
2024/03/04 03:25:41;;;;;;;38.83;26.80;;;;;;;8.10;75.56;99425.81;2503597;28;20094;-78
2024/03/04 03:26:56;;;;;;;36.72;26.25;;;;;;;8.11;75.42;99432.75;2503872;28;20134;-78
2024/03/04 03:28:10;;;;;;;31.30;23.10;;;;;;;8.12;75.39;99433.59;2504373;28;20073;-78
2024/03/04 03:29:23;;;;;;;35.80;27.42;;;;;;;8.11;75.53;99430.13;2503911;28;20062;-78
2024/03/04 03:30:38;;;;;;;38.97;29.25;;;;;;;8.14;75.58;99429.22;2504493;28;20050;-78
2024/03/04 03:31:52;;;;;;;40.30;28.17;;;;;;;8.12;75.19;99433.59;2505067;28;20180;-78
2024/03/04 03:33:06;;;;;;;36.67;26.42;;;;;;;8.10;75.31;99438.81;2504428;28;20066;-78
2024/03/04 03:34:20;;;;;;;35.55;28.42;;;;;;;8.08;75.50;99432.81;2504574;28;20520;-78
2024/03/04 03:35:34;;;;;;;38.15;26.80;;;;;;;8.07;75.45;99433.66;2503509;28;20065;-78
2024/03/04 03:36:47;;;;;;;39.75;28.15;;;;;;;8.08;75.39;99432.81;2503649;28;20625;-78
2024/03/04 03:38:02;;;;;;;36.45;27.08;;;;;;;8.06;75.44;99440.59;2504209;28;20090;-77
2024/03/04 03:39:19;;;;;;;37.80;28.00;;;;;;;8.06;75.30;99429.38;2503938;28;20058;-77
2024/03/04 03:40:33;;;;;;;43.05;29.67;;;;;;;8.05;75.38;99430.22;2503748;28;20050;-77
2024/03/04 03:41:47;;;;;;;41.50;28.95;;;;;;;8.06;75.70;99431.97;2504341;28;20512;-78
2024/03/04 03:43:03;;;;;;;41.75;28.90;;;;;;;8.05;75.50;99431.13;2504198;28;20043;-77
2024/03/04 03:44:16;;;;;;;40.65;28.30;;;;;;;8.05;75.52;99440.63;2504399;28;20077;-78
2024/03/04 03:45:31;;;;;;;43.20;30.20;;;;;;;8.06;75.42;99439.75;2504089;28;20538;-77
2024/03/04 03:46:45;;;;;;;41.20;27.88;;;;;;;8.07;75.54;99441.47;2504255;28;20109;-78
2024/03/04 03:48:00;;;;;;;41.67;29.48;;;;;;;8.05;75.54;99438.03;2503808;28;20464;-78
2024/03/04 03:49:13;;;;;;;35.92;27.75;;;;;;;8.04;75.27;99444.13;2503687;28;20062;-78
2024/03/04 03:50:28;;;;;;;40.42;27.55;;;;;;;8.04;75.28;99446.72;2504009;28;20089;-78
2024/03/04 03:51:41;;;;;;;38.40;27.15;;;;;;;8.02;75.17;99453.69;2503874;28;20051;-78
2024/03/04 03:52:55;;;;;;;35.55;27.15;;;;;;;8.01;75.32;99462.38;2503561;28;20053;-78
2024/03/04 03:54:09;;;;;;;37.78;28.88;;;;;;;8.01;75.40;99457.16;2503902;28;20050;-78
2024/03/04 03:55:24;;;;;;;38.10;28.70;;;;;;;8.00;75.45;99466.72;2503315;28;20564;-78
2024/03/04 03:56:39;;;;;;;42.78;28.67;;;;;;;7.98;75.43;99463.28;2503736;28;20413;-78
2024/03/04 03:57:54;;;;;;;49.33;30.20;;;;;;;7.98;75.45;99463.28;2504065;28;20046;-77
2024/03/04 03:59:08;;;;;;;41.60;29.73;;;;;;;7.99;75.43;99464.97;2504157;28;20059;-78
2024/03/04 04:00:23;;;;;;;42.80;31.20;;;;;;;7.99;75.52;99466.72;2503313;28;20042;-77
2024/03/04 04:01:36;;;;;;;38.65;28.13;;;;;;;7.99;75.31;99464.97;2504133;28;20047;-78
2024/03/04 04:02:51;;;;;;;42.65;29.92;;;;;;;7.98;75.44;99465.03;2507677;28;20069;-78
2024/03/04 04:04:04;;;;;;;40.33;29.23;;;;;;;7.98;75.41;99465.88;2513794;28;20047;-77
2024/03/04 04:05:19;;;;;;;41.92;29.60;;;;;;;7.98;75.22;99468.47;2503905;28;20126;-77
2024/03/04 04:06:32;;;;;;;40.38;28.15;;;;;;;7.97;75.46;99473.69;2504070;28;20047;-78
2024/03/04 04:07:47;;;;;;;43.38;28.65;;;;;;;7.97;75.48;99474.53;2496459;28;20070;-78
2024/03/04 04:09:00;;;;;;;44.38;32.08;;;;;;;7.97;75.36;99474.53;2503439;28;20043;-77
2024/03/04 04:10:15;;;;;;;38.22;29.75;;;;;;;7.98;75.68;99480.59;2503955;28;20130;-78
2024/03/04 04:11:28;;;;;;;46.70;32.08;;;;;;;7.98;75.34;99473.66;2503888;28;20058;-78
2024/03/04 04:12:43;;;;;;;40.28;28.25;;;;;;;8.01;75.38;99472.75;2503018;28;20532;-78
2024/03/04 04:13:56;;;;;;;44.55;28.50;;;;;;;7.99;75.41;99466.72;2503279;28;20050;-77
2024/03/04 04:15:12;;;;;;;40.72;29.88;;;;;;;7.98;75.49;99485.81;2502817;28;20077;-78
2024/03/04 04:16:27;;;;;;;42.58;30.73;;;;;;;7.97;75.29;99487.53;2503108;28;20049;-77
2024/03/04 04:17:41;;;;;;;45.47;30.02;;;;;;;7.98;75.40;99483.22;2503509;28;20110;-77
2024/03/04 04:18:55;;;;;;;41.88;27.33;;;;;;;7.97;75.57;99481.47;2503198;28;20050;-77
2024/03/04 04:20:11;;;;;;;43.72;28.85;;;;;;;7.95;75.24;99484.13;2503379;28;20130;-77
2024/03/04 04:21:26;;;;;;;51.22;31.25;;;;;;;7.94;75.14;99484.13;2502907;28;20050;-77
2024/03/04 04:22:40;;;;;;;42.15;30.63;;;;;;;7.90;75.31;99485.94;2503115;28;20042;-78
2024/03/04 04:23:54;;;;;;;47.97;29.58;;;;;;;7.90;75.23;99490.25;2503242;28;20058;-78
2024/03/04 04:25:10;;;;;;;44.53;29.27;;;;;;;7.88;75.45;99492.03;2502581;28;20050;-78
2024/03/04 04:26:24;;;;;;;47.78;30.55;;;;;;;7.87;75.22;99491.16;2503225;28;20039;-77
2024/03/04 04:27:39;;;;;;;41.75;28.30;;;;;;;7.88;75.48;99499.81;2503162;28;20149;-78
2024/03/04 04:28:52;;;;;;;40.13;28.80;;;;;;;7.86;75.32;99499.84;2502857;28;20047;-77
2024/03/04 04:30:09;;;;;;;49.03;30.95;;;;;;;7.84;75.55;99497.25;2503238;28;20050;-79
2024/03/04 04:31:23;;;;;;;46.13;29.83;;;;;;;7.85;75.49;99499.00;2505351;28;20100;-77
2024/03/04 04:32:38;;;;;;;47.70;28.77;;;;;;;7.86;75.47;99505.88;2504400;28;20062;-77
2024/03/04 04:33:51;;;;;;;47.17;29.73;;;;;;;7.87;75.67;99509.34;2504088;28;20059;-77
2024/03/04 04:35:06;;;;;;;40.80;28.33;;;;;;;7.85;75.38;99509.38;2504026;28;20057;-78
2024/03/04 04:36:21;;;;;;;48.92;30.13;;;;;;;7.86;75.22;99516.28;2503575;28;20069;-78
2024/03/04 04:37:34;;;;;;;40.80;28.92;;;;;;;7.85;75.57;99518.91;2500847;28;20139;-77
2024/03/04 04:38:48;;;;;;;45.42;28.15;;;;;;;7.86;75.37;99524.06;2496252;28;20062;-78
2024/03/04 04:40:03;;;;;;;44.92;28.73;;;;;;;7.83;75.49;99523.28;2503673;28;20129;-77
2024/03/04 04:41:18;;;;;;;45.83;29.27;;;;;;;7.82;75.22;99519.81;2504041;28;20050;-78
2024/03/04 04:42:31;;;;;;;42.08;30.92;;;;;;;7.82;75.58;99524.13;2505499;28;20038;-79
2024/03/04 04:43:46;;;;;;;44.45;29.42;;;;;;;7.81;75.51;99533.66;2503600;28;20058;-77
2024/03/04 04:44:59;;;;;;;47.65;30.63;;;;;;;7.81;75.44;99530.22;2502455;28;20101;-78
2024/03/04 04:46:14;;;;;;;46.92;30.52;;;;;;;7.80;75.39;99531.97;2503434;28;20075;-78
2024/03/04 04:47:29;;;;;;;41.20;30.00;;;;;;;7.79;75.57;99530.22;2503515;28;20070;-77
2024/03/04 04:48:43;;;;;;;40.33;25.27;;;;;;;7.78;75.47;99532.88;2503018;28;20067;-77
2024/03/04 04:49:57;;;;;;;44.60;29.52;;;;;;;7.79;75.68;99535.44;2503562;28;20452;-77
2024/03/04 04:51:12;;;;;;;47.45;29.98;;;;;;;7.79;75.65;99542.38;2503499;28;20050;-78
2024/03/04 04:52:25;;;;;;;43.08;30.10;;;;;;;7.79;75.79;99539.78;2503004;28;20489;-77
2024/03/04 04:53:39;;;;;;;43.25;31.83;;;;;;;7.79;75.69;99529.38;2503173;28;20051;-77
2024/03/04 04:54:53;;;;;;;46.50;29.73;;;;;;;7.80;75.65;99531.97;2504686;28;20047;-78
2024/03/04 04:56:07;;;;;;;45.95;31.58;;;;;;;7.82;75.72;99534.53;2505234;28;20114;-78
2024/03/04 04:57:21;;;;;;;43.35;28.70;;;;;;;7.82;75.59;99535.41;2504607;28;20066;-78
2024/03/04 04:58:36;;;;;;;45.53;29.50;;;;;;;7.81;75.75;99541.47;2505317;28;20130;-78
2024/03/04 04:59:49;;;;;;;47.85;31.33;;;;;;;7.81;75.47;99548.41;2497522;28;20051;-78
2024/03/04 05:01:04;;;;;;;45.40;30.60;;;;;;;7.80;75.74;99541.50;2505112;28;20561;-78
2024/03/04 05:02:17;;;;;;;43.95;29.02;;;;;;;7.79;75.40;99550.16;2505347;28;20409;-78
2024/03/04 05:03:33;;;;;;;53.65;31.70;;;;;;;7.78;75.57;99551.91;2504106;28;20057;-78
2024/03/04 05:04:46;;;;;;;48.38;31.45;;;;;;;7.76;75.53;99551.06;2504898;28;20058;-78
2024/03/04 05:06:01;;;;;;;45.63;30.98;;;;;;;7.76;75.67;99553.66;2505010;28;20126;-78
2024/03/04 05:07:14;;;;;;;43.13;31.35;;;;;;;7.75;75.59;99553.69;2505295;28;20051;-78
2024/03/04 05:08:29;;;;;;;43.63;29.27;;;;;;;7.76;75.77;99564.06;2505088;28;20089;-78
2024/03/04 05:09:42;;;;;;;53.85;33.65;;;;;;;7.77;75.75;99563.19;2505327;28;20085;-78
2024/03/04 05:10:57;;;;;;;47.35;29.50;;;;;;;7.78;75.68;99557.09;2513262;28;20114;-78
2024/03/04 05:12:10;;;;;;;51.08;31.33;;;;;;;7.78;75.50;99557.09;2514923;28;20041;-77
2024/03/04 05:13:25;;;;;;;42.22;30.42;;;;;;;7.79;75.55;99564.00;2511358;28;20063;-78
2024/03/04 05:14:38;;;;;;;51.55;33.38;;;;;;;7.77;75.48;99564.91;2504354;28;20065;-78
2024/03/04 05:15:53;;;;;;;43.67;30.77;;;;;;;7.75;75.62;99566.69;2504173;28;20595;-78
2024/03/04 05:17:07;;;;;;;46.05;31.67;;;;;;;7.75;75.70;99570.13;2503486;28;20521;-78
2024/03/04 05:18:22;;;;;;;40.42;28.63;;;;;;;7.75;75.63;99575.34;2503496;28;20043;-78
2024/03/04 05:19:37;;;;;;;45.63;31.02;;;;;;;7.76;75.83;99571.00;2505855;28;20167;-77
2024/03/04 05:20:52;;;;;;;50.00;33.00;;;;;;;7.75;75.75;99566.69;2505705;28;20050;-78
2024/03/04 05:22:07;;;;;;;40.60;29.27;;;;;;;7.74;75.71;99576.19;2505840;28;20082;-78
2024/03/04 05:23:21;;;;;;;50.00;29.70;;;;;;;7.74;75.65;99572.75;2506213;28;20121;-78
2024/03/04 05:24:34;;;;;;;44.72;28.77;;;;;;;7.73;75.74;99577.09;2505585;28;20061;-78
2024/03/04 05:25:49;;;;;;;46.13;30.70;;;;;;;7.74;75.73;99570.16;2505084;28;20082;-77
2024/03/04 05:27:03;;;;;;;47.20;31.02;;;;;;;7.73;75.69;99582.28;2506036;28;20527;-78
2024/03/04 05:28:17;;;;;;;46.85;31.02;;;;;;;7.74;75.71;99580.53;2505171;28;20085;-78
2024/03/04 05:29:31;;;;;;;54.10;31.70;;;;;;;7.73;75.84;99573.63;2505812;28;20050;-78
2024/03/04 05:30:45;;;;;;;46.83;31.45;;;;;;;7.74;75.81;99575.34;2505635;28;20042;-77
2024/03/04 05:32:00;;;;;;;43.95;28.70;;;;;;;7.73;75.88;99579.69;2505602;28;20134;-78
2024/03/04 05:33:14;;;;;;;47.88;32.78;;;;;;;7.75;75.79;99587.47;2505081;28;20522;-78
2024/03/04 05:34:28;;;;;;;51.65;32.08;;;;;;;7.74;75.82;99589.19;2505786;28;20085;-77
2024/03/04 05:35:44;;;;;;;47.38;31.20;;;;;;;7.74;75.86;99588.31;2504786;28;20042;-78
2024/03/04 05:36:57;;;;;;;49.92;31.85;;;;;;;7.74;75.99;99591.78;2505296;28;20388;-78
2024/03/04 05:38:12;;;;;;;43.00;31.35;;;;;;;7.75;75.74;99590.91;2505078;28;20042;-77
2024/03/04 05:39:31;;;;;;;47.50;31.45;;;;;;;7.75;75.75;99585.72;2505327;28;20043;-78
2024/03/04 05:40:46;;;;;;;47.47;30.38;;;;;;;7.76;75.69;99591.78;2505152;28;20047;-77
2024/03/04 05:41:59;;;;;;;47.50;31.02;;;;;;;7.75;75.97;99596.09;2515291;28;20050;-78
2024/03/04 05:43:14;;;;;;;45.22;31.42;;;;;;;7.76;75.61;99602.16;2513498;28;20043;-77
2024/03/04 05:44:27;;;;;;;46.47;31.25;;;;;;;7.74;75.76;99594.38;2505307;28;20043;-77
2024/03/04 05:45:42;;;;;;;52.75;32.88;;;;;;;7.75;75.90;99598.72;2505240;28;20046;-78